Time;durP1;ratioP1;P1;durP2;ratioP2;P2;SDS_P1;SDS_P2;PMS_P1;PMS_P2;Temp;Humidity;BMP_temperature;BMP_pressure;BME280_temperature;BME280_humidity;BME280_pressure;Samples;Min_cycle;Max_cycle;Signal;HPM_P1;HPM_P2
2021/05/14 00:00:25;;;;;;;0.22;0.10;;;;;;;18.12;41.25;95349.06;5050691;28;20049;-57
2021/05/14 00:02:51;;;;;;;0.20;0.20;;;;;;;18.10;41.15;95347.75;5049989;28;20207;-57
2021/05/14 00:05:17;;;;;;;0.20;0.20;;;;;;;18.10;41.07;95340.41;5050499;28;20055;-56
2021/05/14 00:07:42;;;;;;;0.20;0.20;;;;;;;18.09;41.32;95338.81;5025584;28;20057;-57
2021/05/14 00:10:08;;;;;;;0.75;0.20;;;;;;;18.09;41.57;95338.00;5050158;28;20061;-57
2021/05/14 00:12:34;;;;;;;0.17;0.17;;;;;;;18.08;41.40;95336.41;5050289;28;20049;-57
2021/05/14 00:14:59;;;;;;;0.65;0.30;;;;;;;18.06;41.41;95335.88;5032181;28;20123;-57
2021/05/14 00:17:24;;;;;;;0.20;0.20;;;;;;;18.05;41.58;95337.78;5048919;28;20041;-57
2021/05/14 00:19:50;;;;;;;0.25;0.25;;;;;;;18.06;41.09;95341.28;5049326;28;20052;-57
2021/05/14 00:22:15;;;;;;;0.20;0.20;;;;;;;18.05;41.12;95336.97;5015227;28;20412;-57
2021/05/14 00:24:41;;;;;;;0.20;0.20;;;;;;;18.03;41.10;95338.06;5050359;28;20044;-57
2021/05/14 00:27:06;;;;;;;0.20;0.20;;;;;;;18.01;41.25;95334.84;5051692;28;20645;-57
2021/05/14 00:29:31;;;;;;;0.25;0.20;;;;;;;18.02;41.37;95335.66;5049665;28;20131;-57
2021/05/14 00:31:57;;;;;;;0.30;0.20;;;;;;;18.01;41.16;95336.75;5049876;28;20740;-57
2021/05/14 00:34:22;;;;;;;0.38;0.10;;;;;;;18.00;41.41;95338.66;5032452;28;20546;-57
2021/05/14 00:36:48;;;;;;;0.20;0.20;;;;;;;17.99;41.10;95337.03;5049014;28;20467;-56
2021/05/14 00:39:14;;;;;;;0.17;0.17;;;;;;;17.98;41.00;95335.41;5048282;28;20122;-57
2021/05/14 00:41:39;;;;;;;0.22;0.22;;;;;;;17.98;41.32;95329.19;5050470;28;20072;-57
2021/05/14 00:44:26;;;;;;;0.10;0.10;;;;;;;17.96;41.37;95324.06;5050015;28;20049;-57
2021/05/14 00:46:52;;;;;;;0.10;0.10;;;;;;;17.96;41.28;95325.97;5049158;28;20183;-57
2021/05/14 00:49:17;;;;;;;0.22;0.20;;;;;;;17.95;41.07;95325.19;5049446;28;20128;-57
2021/05/14 00:51:43;;;;;;;0.10;0.10;;;;;;;17.94;41.24;95323.56;5049864;28;20220;-57
2021/05/14 00:54:08;;;;;;;0.52;0.30;;;;;;;17.93;41.06;95319.25;5048951;28;20054;-58
2021/05/14 00:56:34;;;;;;;0.20;0.20;;;;;;;17.92;41.20;95317.63;5047759;28;20431;-57
2021/05/14 00:58:59;;;;;;;0.10;0.10;;;;;;;17.91;41.28;95328.78;5048882;28;20051;-57
2021/05/14 01:01:25;;;;;;;0.20;0.20;;;;;;;17.90;41.21;95322.53;5064814;28;20056;-58
2021/05/14 01:03:50;;;;;;;0.20;0.20;;;;;;;17.90;41.25;95325.22;5031174;28;20102;-57
2021/05/14 01:06:15;;;;;;;0.60;0.30;;;;;;;17.90;41.32;95330.66;5042222;28;20060;-57
2021/05/14 01:08:41;;;;;;;0.20;0.20;;;;;;;17.90;41.46;95329.84;5048882;28;20056;-58
2021/05/14 01:11:06;;;;;;;0.20;0.20;;;;;;;17.88;41.07;95322.00;5048693;28;20494;-57
2021/05/14 01:13:31;;;;;;;0.20;0.20;;;;;;;17.87;41.02;95325.84;5047733;28;20056;-57
2021/05/14 01:15:57;;;;;;;0.10;0.10;;;;;;;17.87;41.19;95322.31;5047541;28;20051;-57
2021/05/14 01:18:22;;;;;;;0.20;0.20;;;;;;;17.87;41.05;95316.91;5048802;28;20048;-59
2021/05/14 01:20:48;;;;;;;1.85;0.45;;;;;;;17.87;41.44;95319.63;5048825;28;20053;-57
2021/05/14 01:23:13;;;;;;;0.10;0.10;;;;;;;17.86;40.87;95320.69;5047715;28;20060;-57
2021/05/14 01:25:39;;;;;;;0.13;0.13;;;;;;;17.85;41.29;95324.53;5024839;28;20094;-61
2021/05/14 01:28:04;;;;;;;0.28;0.28;;;;;;;17.83;41.12;95317.47;5053429;28;20064;-60
2021/05/14 01:30:30;;;;;;;0.20;0.20;;;;;;;17.84;41.14;95326.44;5029939;28;20052;-60
2021/05/14 01:32:55;;;;;;;0.30;0.10;;;;;;;17.83;41.34;95328.31;5047211;28;20531;-58
2021/05/14 01:35:20;;;;;;;0.20;0.20;;;;;;;17.82;41.42;95328.59;5047004;28;20053;-58
2021/05/14 01:37:46;;;;;;;0.15;0.15;;;;;;;17.83;41.15;95335.63;5046950;28;20059;-59
2021/05/14 01:40:11;;;;;;;0.20;0.20;;;;;;;17.81;41.18;95325.06;5044890;28;20056;-59
2021/05/14 01:42:44;;;;;;;0.10;0.10;;;;;;;17.80;41.09;95326.16;5047520;28;20290;-57
2021/05/14 01:45:10;;;;;;;0.28;0.15;;;;;;;17.80;41.07;95322.66;5029506;28;20551;-58
2021/05/14 01:47:35;;;;;;;0.20;0.20;;;;;;;17.79;41.17;95319.13;5047309;28;20053;-59
2021/05/14 01:50:00;;;;;;;0.40;0.20;;;;;;;17.78;41.35;95317.53;5046893;28;20044;-58
2021/05/14 01:52:26;;;;;;;0.10;0.10;;;;;;;17.77;41.15;95313.19;5046658;28;20454;-58
2021/05/14 01:54:51;;;;;;;0.10;0.10;;;;;;;17.77;41.37;95317.81;5045606;28;20052;-58
2021/05/14 01:57:17;;;;;;;0.20;0.20;;;;;;;17.77;41.29;95320.53;5029275;28;20056;-59
2021/05/14 01:59:42;;;;;;;0.40;0.20;;;;;;;17.76;41.22;95319.72;5046715;28;20514;-58
2021/05/14 02:02:07;;;;;;;0.30;0.30;;;;;;;17.77;41.07;95325.94;5046510;28;20403;-58
2021/05/14 02:04:33;;;;;;;0.20;0.20;;;;;;;17.75;41.17;95323.50;5046822;28;20573;-58
2021/05/14 02:06:58;;;;;;;0.10;0.10;;;;;;;17.75;41.58;95322.72;5045836;28;20052;-59
2021/05/14 02:09:24;;;;;;;0.55;0.28;;;;;;;17.71;41.16;95319.78;5044914;28;20111;-58
2021/05/14 02:11:49;;;;;;;0.20;0.20;;;;;;;17.73;41.31;95328.41;5046345;28;20052;-58
2021/05/14 02:14:14;;;;;;;0.28;0.28;;;;;;;17.73;41.42;95330.31;5047167;28;20064;-58
2021/05/14 02:16:40;;;;;;;0.13;0.10;;;;;;;17.72;41.14;95329.53;5046726;28;20114;-58
2021/05/14 02:19:05;;;;;;;0.20;0.20;;;;;;;17.72;41.40;95329.53;5046451;28;20053;-58
2021/05/14 02:21:31;;;;;;;0.55;0.32;;;;;;;17.71;41.11;95335.22;5046879;28;20052;-58
2021/05/14 02:23:56;;;;;;;0.25;0.20;;;;;;;17.71;41.29;95324.38;5045907;28;20049;-58
2021/05/14 02:26:22;;;;;;;0.10;0.10;;;;;;;17.70;41.35;95322.78;5046365;28;20060;-59
2021/05/14 02:28:47;;;;;;;0.25;0.20;;;;;;;17.69;41.53;95324.69;5049343;28;20024;-58
2021/05/14 02:31:12;;;;;;;0.10;0.10;;;;;;;17.70;41.15;95326.31;5045904;28;20049;-59
2021/05/14 02:33:38;;;;;;;0.45;0.20;;;;;;;17.69;41.58;95334.72;5046702;28;20037;-58
2021/05/14 02:36:04;;;;;;;0.30;0.30;;;;;;;17.68;41.63;95323.06;5045945;28;20045;-58
2021/05/14 02:38:29;;;;;;;0.20;0.20;;;;;;;17.68;41.39;95336.63;5047540;28;20520;-59
2021/05/14 02:40:55;;;;;;;0.10;0.10;;;;;;;17.69;41.34;95334.72;5046757;28;20496;-58
2021/05/14 02:43:20;;;;;;;0.13;0.13;;;;;;;17.67;41.46;95340.41;5047206;28;20037;-58
2021/05/14 02:45:46;;;;;;;0.20;0.20;;;;;;;17.67;41.42;95336.91;5047023;28;20411;-58
2021/05/14 02:48:11;;;;;;;0.20;0.10;;;;;;;17.65;41.36;95342.59;5046828;28;20060;-59
2021/05/14 02:50:37;;;;;;;0.45;0.20;;;;;;;17.66;41.62;95340.72;5046618;28;20150;-58
2021/05/14 02:53:03;;;;;;;0.20;0.20;;;;;;;17.65;41.74;95336.38;5029043;28;20053;-58
2021/05/14 02:55:28;;;;;;;0.20;0.20;;;;;;;17.65;41.53;95331.75;5047291;28;20127;-58
2021/05/14 02:57:54;;;;;;;0.20;0.20;;;;;;;17.63;41.14;95325.84;5046875;28;20102;-58
2021/05/14 03:00:20;;;;;;;0.85;0.20;;;;;;;17.63;41.43;95334.78;5046708;28;20049;-59
2021/05/14 03:02:45;;;;;;;0.40;0.40;;;;;;;17.64;41.61;95335.59;5047124;28;20057;-58
2021/05/14 03:05:11;;;;;;;0.30;0.30;;;;;;;17.63;41.48;95340.19;5046929;28;20060;-58
2021/05/14 03:07:36;;;;;;;0.28;0.28;;;;;;;17.63;41.16;95336.66;5045539;28;20218;-58
2021/05/14 03:10:02;;;;;;;0.28;0.20;;;;;;;17.61;41.60;95342.41;5045971;28;20052;-58
2021/05/14 03:12:28;;;;;;;0.40;0.40;;;;;;;17.61;41.59;95338.84;5028455;28;20048;-58
2021/05/14 03:14:54;;;;;;;0.47;0.30;;;;;;;17.60;41.22;95351.59;5045911;28;20076;-58
2021/05/14 03:17:19;;;;;;;0.20;0.20;;;;;;;17.60;41.26;95351.59;5046384;28;20048;-58
2021/05/14 03:19:45;;;;;;;0.52;0.52;;;;;;;17.60;41.23;95353.50;5046940;28;20061;-58
2021/05/14 03:22:10;;;;;;;0.40;0.40;;;;;;;17.58;41.58;95356.50;5050869;28;20053;-58
2021/05/14 03:24:35;;;;;;;0.30;0.30;;;;;;;17.58;41.34;95353.00;5050955;28;20686;-57
2021/05/14 03:27:01;;;;;;;0.45;0.30;;;;;;;17.58;41.69;95358.41;5050381;28;20045;-59
2021/05/14 03:29:26;;;;;;;0.22;0.22;;;;;;;17.56;41.40;95363.28;5051706;28;20049;-59
2021/05/14 03:31:52;;;;;;;0.20;0.20;;;;;;;17.57;41.73;95367.63;5032666;28;20052;-59
2021/05/14 03:34:17;;;;;;;0.30;0.30;;;;;;;17.57;41.47;95373.84;5039294;28;20458;-59
2021/05/14 03:36:42;;;;;;;0.35;0.22;;;;;;;17.57;41.44;95364.94;5050256;28;20076;-58
2021/05/14 03:39:08;;;;;;;0.38;0.38;;;;;;;17.56;41.44;95372.22;5049312;28;20049;-57
2021/05/14 03:41:47;;;;;;;0.57;0.30;;;;;;;17.53;41.66;95380.13;5015724;28;20053;-58
2021/05/14 03:44:12;;;;;;;0.20;0.20;;;;;;;17.56;41.79;95379.53;5050290;28;20108;-58
2021/05/14 03:46:37;;;;;;;0.20;0.20;;;;;;;17.55;41.67;95383.34;5049721;28;20060;-59
2021/05/14 03:49:03;;;;;;;0.30;0.30;;;;;;;17.55;41.57;95388.78;5031223;28;20554;-59
2021/05/14 03:51:29;;;;;;;0.20;0.20;;;;;;;17.55;41.77;95391.47;5049769;28;20060;-58
2021/05/14 03:53:54;;;;;;;0.25;0.25;;;;;;;17.53;41.82;95391.75;5032101;28;20049;-58
2021/05/14 03:56:19;;;;;;;0.20;0.20;;;;;;;17.52;41.76;95384.72;5049926;28;20061;-59
2021/05/14 03:58:45;;;;;;;0.30;0.30;;;;;;;17.54;41.53;95392.56;5031940;28;20118;-59
2021/05/14 04:01:10;;;;;;;0.63;0.20;;;;;;;17.53;41.63;95389.06;5050230;28;20695;-59
2021/05/14 04:03:36;;;;;;;0.28;0.28;;;;;;;17.53;41.81;95389.06;5049661;28;20048;-59
2021/05/14 04:06:01;;;;;;;0.35;0.35;;;;;;;17.53;41.89;95396.38;5049115;28;20048;-59
2021/05/14 04:08:27;;;;;;;0.20;0.20;;;;;;;17.53;41.79;95393.66;5049082;28;20049;-58
2021/05/14 04:16:20;;;;;;;0.45;0.30;;;;;;;17.50;41.50;95392.31;5049256;28;20486;-59
2021/05/14 04:18:46;;;;;;;0.35;0.30;;;;;;;17.50;41.82;95402.34;5049940;28;20057;-59
2021/05/14 04:21:11;;;;;;;0.38;0.38;;;;;;;17.50;41.84;95403.16;5049995;28;20041;-57
2021/05/14 04:23:37;;;;;;;0.22;0.22;;;;;;;17.50;41.46;95400.44;5049532;28;20053;-57
2021/05/14 04:26:02;;;;;;;0.40;0.40;;;;;;;17.50;41.87;95397.75;5049949;28;20047;-58
2021/05/14 04:28:27;;;;;;;0.40;0.40;;;;;;;17.49;41.71;95404.25;5049457;28;20057;-59
2021/05/14 04:30:53;;;;;;;0.20;0.20;;;;;;;17.49;41.53;95406.97;5050405;28;20032;-59
2021/05/14 04:33:18;;;;;;;0.30;0.30;;;;;;;17.48;41.56;95405.34;5047797;28;20053;-58
2021/05/14 04:35:44;;;;;;;0.57;0.57;;;;;;;17.47;41.85;95403.75;5049060;28;20511;-58
2021/05/14 04:38:09;;;;;;;0.22;0.22;;;;;;;17.47;41.52;95402.94;5048711;28;20052;-58
2021/05/14 04:40:35;;;;;;;0.38;0.32;;;;;;;17.48;41.50;95409.97;5048597;28;20049;-58
2021/05/14 04:43:01;;;;;;;0.25;0.25;;;;;;;17.47;41.59;95403.75;5049008;28;20045;-58
2021/05/14 04:45:26;;;;;;;0.40;0.40;;;;;;;17.47;41.88;95414.56;5031020;28;20049;-59
2021/05/14 04:47:52;;;;;;;0.30;0.30;;;;;;;17.48;41.70;95412.66;5048681;28;20049;-58
2021/05/14 04:50:18;;;;;;;1.05;0.40;;;;;;;17.47;41.50;95408.34;5049012;28;20057;-59
2021/05/14 04:52:44;;;;;;;0.22;0.22;;;;;;;17.43;41.87;95395.38;5049505;28;20088;-59
2021/05/14 04:55:10;;;;;;;0.50;0.50;;;;;;;17.45;41.91;95407.84;5031507;28;20149;-59
2021/05/14 04:57:36;;;;;;;0.20;0.20;;;;;;;17.45;41.80;95413.25;5048964;28;20048;-59
2021/05/14 05:00:01;;;;;;;0.30;0.30;;;;;;;17.44;41.61;95423.25;5049388;28;20100;-59
2021/05/14 05:02:27;;;;;;;0.35;0.35;;;;;;;17.43;41.75;95427.06;5048758;28;20049;-59
2021/05/14 05:04:54;;;;;;;0.50;0.50;;;;;;;17.43;41.61;95429.78;5014497;28;20053;-59
2021/05/14 05:07:20;;;;;;;0.38;0.38;;;;;;;17.43;41.69;95427.06;5031410;28;20393;-59
2021/05/14 05:09:45;;;;;;;0.85;0.38;;;;;;;17.42;41.48;95434.38;5049190;28;20052;-58
2021/05/14 05:12:12;;;;;;;0.38;0.38;;;;;;;17.42;41.88;95426.25;5049110;28;20055;-58
2021/05/14 05:14:38;;;;;;;0.30;0.30;;;;;;;17.41;41.90;95424.63;5048497;28;20082;-58
2021/05/14 05:17:04;;;;;;;0.30;0.30;;;;;;;17.42;41.65;95425.44;5013932;28;20061;-58
2021/05/14 05:19:29;;;;;;;0.40;0.40;;;;;;;17.41;41.70;95423.84;5010278;28;20127;-58
2021/05/14 05:21:55;;;;;;;0.40;0.40;;;;;;;17.40;41.99;95428.44;5029661;28;20444;-59
2021/05/14 05:24:20;;;;;;;1.08;0.68;;;;;;;17.40;42.06;95433.88;5048133;28;20068;-59
2021/05/14 05:26:47;;;;;;;0.80;0.80;;;;;;;17.41;41.98;95423.84;5047363;28;20048;-59
2021/05/14 05:29:12;;;;;;;0.80;0.80;;;;;;;17.40;42.03;95428.44;5047824;28;20546;-59
2021/05/14 05:31:37;;;;;;;0.80;0.80;;;;;;;17.40;41.87;95435.75;5030580;28;20041;-58
2021/05/14 05:34:03;;;;;;;0.60;0.60;;;;;;;17.40;41.59;95436.56;5048618;28;20037;-59
2021/05/14 05:36:29;;;;;;;0.98;0.82;;;;;;;17.39;41.54;95445.78;5047987;28;20056;-58
2021/05/14 05:38:55;;;;;;;0.80;0.80;;;;;;;17.39;42.05;95450.38;5046969;28;20404;-58
2021/05/14 05:41:20;;;;;;;0.77;0.77;;;;;;;17.39;42.08;95453.09;5014801;28;20052;-58
2021/05/14 05:43:46;;;;;;;0.65;0.65;;;;;;;17.39;41.80;95455.78;5047906;28;20195;-58
2021/05/14 05:46:11;;;;;;;0.82;0.80;;;;;;;17.38;42.04;95454.16;5047915;28;20045;-59
2021/05/14 05:48:37;;;;;;;0.80;0.80;;;;;;;17.38;41.97;95463.13;5030257;28;20040;-59
2021/05/14 05:51:03;;;;;;;1.00;0.73;;;;;;;17.37;41.64;95460.69;5048072;28;20467;-59
2021/05/14 05:53:28;;;;;;;1.33;0.80;;;;;;;17.36;42.12;95459.88;5047658;28;20053;-58
2021/05/14 05:55:54;;;;;;;0.70;0.70;;;;;;;17.37;41.92;95466.91;5012476;28;20053;-59
2021/05/14 05:58:19;;;;;;;1.40;0.93;;;;;;;17.37;42.01;95463.41;5047378;28;20041;-59
2021/05/14 06:00:44;;;;;;;0.93;0.93;;;;;;;17.36;41.98;95467.19;5011799;28;20576;-59
2021/05/14 06:03:10;;;;;;;0.88;0.88;;;;;;;17.35;41.72;95465.56;5029857;28;20053;-58
2021/05/14 06:05:39;;;;;;;0.70;0.70;;;;;;;17.34;41.85;95470.19;5013447;28;20491;-58
2021/05/14 06:08:04;;;;;;;0.55;0.55;;;;;;;17.35;42.31;95469.09;5023391;28;20064;-58
2021/05/14 06:10:29;;;;;;;0.85;0.70;;;;;;;17.35;42.52;95473.69;5028980;28;20527;-58
2021/05/14 06:12:55;;;;;;;1.08;0.73;;;;;;;17.35;42.62;95471.00;5045871;28;20064;-58
2021/05/14 06:15:20;;;;;;;0.90;0.90;;;;;;;17.33;42.83;95465.84;5065399;28;20063;-58
2021/05/14 06:17:46;;;;;;;0.70;0.70;;;;;;;17.34;42.52;95472.91;5027296;28;20523;-57
2021/05/14 06:20:14;;;;;;;0.80;0.80;;;;;;;17.35;42.34;95479.91;5005927;28;20057;-57
2021/05/14 06:22:39;;;;;;;1.20;0.93;;;;;;;17.36;42.58;95480.72;5037045;28;20783;-58
2021/05/14 06:25:05;;;;;;;0.70;0.70;;;;;;;17.37;42.81;95472.31;5046317;28;20079;-58
2021/05/14 06:27:31;;;;;;;0.50;0.50;;;;;;;17.39;42.77;95478.25;5046553;28;20524;-58
2021/05/14 06:29:56;;;;;;;0.95;0.70;;;;;;;17.43;43.05;95470.38;5032150;28;20057;-58
2021/05/14 06:32:22;;;;;;;0.73;0.60;;;;;;;17.48;43.05;95477.63;5050295;28;20048;-59
2021/05/14 06:34:47;;;;;;;2.50;0.60;;;;;;;17.53;42.93;95485.72;5045753;28;20060;-59
2021/05/14 06:37:13;;;;;;;0.65;0.65;;;;;;;17.58;42.66;95488.38;5046649;28;20412;-58
2021/05/14 06:39:38;;;;;;;1.88;0.60;;;;;;;17.64;43.19;95498.06;5041689;28;20056;-58
2021/05/14 06:42:04;;;;;;;0.60;0.60;;;;;;;17.68;42.68;95492.88;5041583;28;20088;-58
2021/05/14 06:44:30;;;;;;;0.90;0.55;;;;;;;17.72;43.07;95494.72;5046544;28;20080;-58
2021/05/14 06:46:55;;;;;;;0.47;0.47;;;;;;;17.78;43.31;95499.00;5046163;28;20053;-59
2021/05/14 06:49:22;;;;;;;0.40;0.40;;;;;;;17.82;43.11;95499.25;5046016;28;20041;-59
2021/05/14 06:51:48;;;;;;;1.08;0.60;;;;;;;17.86;43.03;95502.19;5045588;28;20060;-58
2021/05/14 06:54:13;;;;;;;0.60;0.55;;;;;;;17.92;42.78;95507.25;5046209;28;20063;-58
2021/05/14 06:56:39;;;;;;;0.60;0.60;;;;;;;17.97;43.03;95520.78;5049092;28;20053;-58
2021/05/14 06:59:04;;;;;;;0.52;0.47;;;;;;;18.03;42.62;95522.31;5044344;28;20551;-57
2021/05/14 07:01:30;;;;;;;0.82;0.43;;;;;;;18.10;42.97;95532.81;5050378;28;20056;-58
2021/05/14 07:03:55;;;;;;;1.35;0.43;;;;;;;18.14;42.80;95533.84;5050348;28;20089;-58
2021/05/14 07:06:21;;;;;;;0.60;0.60;;;;;;;18.20;42.70;95534.63;5033867;28;20539;-57
2021/05/14 07:08:47;;;;;;;0.40;0.40;;;;;;;18.25;42.78;95539.16;5032915;28;20048;-58
2021/05/14 07:11:13;;;;;;;1.75;0.43;;;;;;;18.29;42.60;95545.63;5051192;28;20065;-57
2021/05/14 07:13:38;;;;;;;1.92;0.40;;;;;;;18.33;42.77;95541.22;5051000;28;20400;-57
2021/05/14 07:16:04;;;;;;;0.88;0.50;;;;;;;18.37;42.52;95550.41;5050004;28;20122;-57
2021/05/14 07:18:29;;;;;;;0.40;0.40;;;;;;;18.40;42.68;95556.03;5049586;28;20136;-57
2021/05/14 07:20:55;;;;;;;0.50;0.50;;;;;;;18.46;42.52;95556.78;5033319;28;20060;-57
2021/05/14 07:23:21;;;;;;;0.40;0.40;;;;;;;18.50;42.16;95565.16;5051121;28;20068;-57
2021/05/14 07:25:47;;;;;;;0.50;0.43;;;;;;;18.52;42.09;95555.63;5050269;28;20052;-57
2021/05/14 07:28:12;;;;;;;0.40;0.40;;;;;;;18.58;42.47;95572.66;5032615;28;20122;-57
2021/05/14 07:30:38;;;;;;;0.50;0.40;;;;;;;18.61;42.43;95575.59;5048857;28;20898;-56
2021/05/14 07:33:03;;;;;;;1.23;0.50;;;;;;;18.66;41.95;95580.16;5049737;28;20245;-57
2021/05/14 07:35:29;;;;;;;0.80;0.40;;;;;;;18.70;41.93;95585.78;5049999;28;20484;-57
2021/05/14 07:37:54;;;;;;;0.40;0.40;;;;;;;18.73;41.97;95582.50;5031882;28;20060;-58
2021/05/14 07:40:21;;;;;;;0.60;0.60;;;;;;;18.78;41.90;95585.13;5050314;28;20114;-58
2021/05/14 07:42:46;;;;;;;0.45;0.45;;;;;;;18.79;42.20;95587.59;5050246;28;20128;-57
2021/05/14 07:45:12;;;;;;;1.75;0.93;;;;;;;18.85;42.17;95584.81;5051041;28;20045;-58
2021/05/14 07:47:37;;;;;;;1.55;0.60;;;;;;;18.88;42.08;95595.09;5050367;28;20392;-58
2021/05/14 07:50:03;;;;;;;0.63;0.52;;;;;;;18.88;41.74;95585.03;5049742;28;20061;-57
2021/05/14 07:52:29;;;;;;;0.85;0.73;;;;;;;18.95;41.96;95592.81;5050565;28;20064;-58
2021/05/14 07:54:54;;;;;;;3.65;1.10;;;;;;;18.98;41.79;95597.66;5046128;28;20061;-57
2021/05/14 07:57:20;;;;;;;2.67;0.93;;;;;;;18.98;41.92;95593.03;5056281;28;20114;-57
2021/05/14 07:59:47;;;;;;;2.13;1.00;;;;;;;19.03;41.82;95601.13;5049524;28;20053;-57
2021/05/14 08:02:13;;;;;;;4.97;0.90;;;;;;;19.07;41.92;95603.22;5032054;28;20052;-57
2021/05/14 08:04:38;;;;;;;5.28;1.30;;;;;;;19.11;41.95;95604.25;5049402;28;20061;-58
2021/05/14 08:07:03;;;;;;;2.33;0.85;;;;;;;19.16;41.78;95604.22;5049072;28;20503;-56
2021/05/14 08:09:29;;;;;;;3.70;1.50;;;;;;;19.20;41.77;95606.03;5048221;28;20048;-54
2021/05/14 08:11:54;;;;;;;3.70;0.90;;;;;;;19.24;41.98;95604.34;5048581;28;20057;-54
2021/05/14 08:14:20;;;;;;;2.85;1.25;;;;;;;19.28;41.78;95609.19;5029752;28;20115;-54
2021/05/14 08:16:45;;;;;;;3.38;1.10;;;;;;;19.31;41.55;95608.59;5048440;28;20053;-54
2021/05/14 08:19:12;;;;;;;2.33;0.90;;;;;;;19.32;41.31;95608.28;5048419;28;20055;-56
2021/05/14 08:21:46;;;;;;;3.10;0.80;;;;;;;19.36;41.39;95609.31;5049167;28;20044;-56
2021/05/14 08:24:12;;;;;;;2.70;0.85;;;;;;;19.39;41.21;95616.09;5044410;28;20052;-55
2021/05/14 08:26:38;;;;;;;1.42;0.80;;;;;;;19.42;41.42;95620.91;5049989;28;20078;-56
2021/05/14 08:29:04;;;;;;;3.00;1.10;;;;;;;19.45;41.24;95623.03;5049867;28;20045;-57
2021/05/14 08:31:29;;;;;;;2.97;0.77;;;;;;;19.47;41.09;95620.84;5049577;28;20530;-56
2021/05/14 08:33:55;;;;;;;1.33;0.90;;;;;;;19.50;41.20;95619.47;5048629;28;20056;-56
2021/05/14 08:36:20;;;;;;;2.60;1.00;;;;;;;19.52;40.89;95620.75;5049507;28;20037;-57
2021/05/14 08:38:46;;;;;;;1.02;0.93;;;;;;;19.54;40.93;95617.75;5048321;28;20041;-56
2021/05/14 08:41:12;;;;;;;2.40;1.00;;;;;;;19.57;40.83;95619.88;5049305;28;20041;-57
2021/05/14 08:43:37;;;;;;;1.00;0.90;;;;;;;19.59;40.96;95623.91;5049037;28;20045;-58
2021/05/14 08:46:02;;;;;;;1.67;1.02;;;;;;;19.62;40.64;95623.31;5048840;28;20530;-58
2021/05/14 08:48:32;;;;;;;1.75;1.35;;;;;;;19.64;41.07;95614.88;5048657;28;20079;-59
2021/05/14 08:50:57;;;;;;;1.33;0.80;;;;;;;19.67;40.56;95618.91;5048739;28;20546;-57
2021/05/14 08:53:23;;;;;;;2.47;0.90;;;;;;;19.67;40.54;95616.19;5049313;28;20052;-57
2021/05/14 08:55:48;;;;;;;1.33;0.70;;;;;;;19.70;40.47;95624.56;5047619;28;20041;-57
2021/05/14 08:58:14;;;;;;;1.42;0.80;;;;;;;19.72;40.53;95616.94;5047907;28;20083;-56
2021/05/14 09:00:39;;;;;;;0.73;0.70;;;;;;;19.75;40.65;95618.28;5048741;28;20053;-57
2021/05/14 09:03:11;;;;;;;1.70;0.60;;;;;;;19.78;40.41;95628.53;5049097;28;20767;-58
2021/05/14 09:05:37;;;;;;;1.15;0.82;;;;;;;19.78;40.45;95626.63;5048930;28;20558;-58
2021/05/14 09:08:02;;;;;;;1.70;0.90;;;;;;;19.82;40.48;95635.00;5048028;28;20052;-57
2021/05/14 09:10:29;;;;;;;1.33;1.00;;;;;;;19.83;40.59;95626.56;5042901;28;20103;-58
2021/05/14 09:12:55;;;;;;;1.50;0.88;;;;;;;19.86;40.20;95632.50;5044473;28;20158;-57
2021/05/14 09:15:24;;;;;;;0.73;0.73;;;;;;;19.88;40.34;95628.38;5048458;28;20071;-58
2021/05/14 09:18:06;;;;;;;1.08;0.80;;;;;;;19.89;40.42;95632.72;5048007;28;20045;-57
2021/05/14 09:20:35;;;;;;;1.10;1.10;;;;;;;19.91;40.44;95635.94;5048352;28;20049;-56
2021/05/14 09:23:21;;;;;;;1.58;0.88;;;;;;;19.93;40.39;95632.91;5047039;28;20571;-57
2021/05/14 09:25:57;;;;;;;1.70;0.90;;;;;;;19.95;40.34;95636.13;5035833;28;20088;-57
2021/05/14 09:28:39;;;;;;;1.70;0.90;;;;;;;19.96;40.27;95635.03;5048072;28;20543;-57
2021/05/14 09:31:26;;;;;;;0.70;0.60;;;;;;;19.98;40.21;95635.56;5048317;28;20620;-58
2021/05/14 09:33:58;;;;;;;1.95;0.70;;;;;;;19.99;39.96;95643.38;5047042;28;20139;-56
2021/05/14 09:36:34;;;;;;;0.90;0.70;;;;;;;20.01;40.38;95637.66;5029449;28;20411;-58
2021/05/14 09:39:01;;;;;;;2.05;0.90;;;;;;;20.02;40.17;95650.97;5047256;28;20735;-58
2021/05/14 09:41:33;;;;;;;0.73;0.73;;;;;;;20.03;40.45;95649.84;5047298;28;20052;-59
2021/05/14 09:44:00;;;;;;;1.35;0.63;;;;;;;20.06;40.24;95651.19;5042083;28;20545;-58
2021/05/14 09:46:47;;;;;;;1.75;0.73;;;;;;;20.10;40.50;95645.94;5039958;28;20875;-59
2021/05/14 09:49:16;;;;;;;2.15;0.60;;;;;;;20.13;40.30;95656.22;5047399;28;20052;-58
2021/05/14 09:51:53;;;;;;;7.13;0.63;;;;;;;20.15;40.31;95654.03;5048652;28;20041;-57
2021/05/14 09:54:22;;;;;;;2.00;0.60;;;;;;;20.17;40.13;95652.63;5046722;28;20060;-57
2021/05/14 09:58:00;;;;;;;1.60;0.80;;;;;;;20.19;40.37;95658.56;5036567;28;20049;-57
2021/05/14 10:00:04;;;;;;;3.17;0.57;;;;;;;20.21;40.11;95656.34;5030917;28;20632;-57
2021/05/14 10:02:34;;;;;;;3.08;0.60;;;;;;;20.23;40.19;95656.06;5045317;28;20443;-57
2021/05/14 10:05:01;;;;;;;1.42;0.68;;;;;;;20.26;40.29;95663.59;5037615;28;20047;-57
2021/05/14 10:07:27;;;;;;;2.03;0.88;;;;;;;20.28;40.37;95664.09;5044747;28;20049;-56
2021/05/14 10:09:56;;;;;;;2.17;0.60;;;;;;;20.29;40.47;95660.31;5046770;28;20079;-57
2021/05/14 10:12:22;;;;;;;1.70;0.50;;;;;;;20.30;40.20;95664.63;5043786;28;20102;-57
2021/05/14 10:14:47;;;;;;;2.63;0.55;;;;;;;20.31;40.46;95662.69;5026549;28;20045;-58
2021/05/14 10:17:13;;;;;;;1.25;0.85;;;;;;;20.32;40.32;95659.69;5021363;28;20131;-59
2021/05/14 10:19:39;;;;;;;5.00;0.75;;;;;;;20.34;40.29;95664.84;5046131;28;20447;-59
2021/05/14 10:22:05;;;;;;;2.28;1.00;;;;;;;20.34;40.38;95664.84;5037533;28;20063;-61
2021/05/14 10:24:41;;;;;;;0.60;0.60;;;;;;;20.37;40.42;95656.06;5014460;28;20048;-58
2021/05/14 10:27:20;;;;;;;1.55;0.50;;;;;;;20.39;40.35;95662.00;5046389;28;20135;-58
2021/05/14 10:29:51;;;;;;;2.88;0.93;;;;;;;20.42;40.20;95667.66;5045107;28;20049;-58
2021/05/14 10:32:17;;;;;;;2.10;1.20;;;;;;;20.44;40.30;95670.09;5021800;28;20824;-58
2021/05/14 10:34:42;;;;;;;2.58;1.30;;;;;;;20.44;40.30;95665.44;5029406;28;20408;-58
2021/05/14 10:37:08;;;;;;;1.10;1.05;;;;;;;20.44;40.28;95660.00;5055075;28;20065;-58
2021/05/14 10:39:35;;;;;;;2.13;1.20;;;;;;;20.45;40.17;95658.91;5046391;28;20060;-58
2021/05/14 10:42:07;;;;;;;2.15;1.40;;;;;;;20.46;40.13;95665.16;5046878;28;20079;-58
2021/05/14 10:44:46;;;;;;;2.40;1.48;;;;;;;20.42;40.03;95659.50;5044215;28;20087;-59
2021/05/14 10:47:21;;;;;;;1.90;1.00;;;;;;;20.42;39.80;95664.16;5045896;28;20091;-58
2021/05/14 10:49:49;;;;;;;2.72;1.10;;;;;;;20.41;39.96;95663.34;5045797;28;20139;-58
2021/05/14 10:52:14;;;;;;;1.45;1.00;;;;;;;20.40;39.96;95658.19;5045629;28;20530;-58
2021/05/14 10:54:40;;;;;;;3.00;1.25;;;;;;;20.39;40.04;95656.56;5043657;28;20040;-58
2021/05/14 10:57:12;;;;;;;1.45;0.88;;;;;;;20.39;40.02;95662.00;5045932;28;20090;-58
2021/05/14 10:59:41;;;;;;;2.00;0.80;;;;;;;20.36;39.79;95655.25;5043637;28;20169;-58
2021/05/14 11:02:29;;;;;;;2.03;0.85;;;;;;;20.34;39.85;95653.97;5045670;28;20052;-58
2021/05/14 11:05:00;;;;;;;1.00;0.60;;;;;;;20.32;40.23;95651.53;5045737;28;20053;-59
2021/05/14 11:07:39;;;;;;;2.58;0.77;;;;;;;20.31;40.17;95657.25;5041925;28;20049;-60
2021/05/14 11:10:13;;;;;;;1.55;0.90;;;;;;;20.29;40.07;95662.19;5032609;28;20068;-59
2021/05/14 11:12:43;;;;;;;1.05;0.90;;;;;;;20.28;40.31;95657.88;5046900;28;20067;-60
2021/05/14 11:15:33;;;;;;;1.73;0.80;;;;;;;20.24;40.38;95650.28;5046653;28;20045;-59
2021/05/14 11:18:14;;;;;;;1.63;1.02;;;;;;;20.22;40.40;95647.06;5041771;28;20059;-60
2021/05/14 11:20:43;;;;;;;4.93;0.80;;;;;;;20.23;40.98;95645.97;5046236;28;20048;-59
2021/05/14 11:23:35;;;;;;;1.05;0.90;;;;;;;20.22;40.87;95649.00;5018813;28;20135;-61
2021/05/14 11:26:02;;;;;;;2.17;0.73;;;;;;;20.20;41.17;95652.03;5026939;28;20053;-60
2021/05/14 11:28:40;;;;;;;0.85;0.80;;;;;;;20.18;40.89;95637.94;5027839;28;20130;-61
2021/05/14 11:31:06;;;;;;;2.78;0.88;;;;;;;20.16;40.79;95651.00;5046544;28;20674;-59
2021/05/14 11:33:31;;;;;;;1.48;0.90;;;;;;;20.16;41.09;95658.34;5043160;28;20053;-60
2021/05/14 11:35:57;;;;;;;1.27;1.15;;;;;;;20.13;40.99;95659.75;5046504;28;20049;-59
2021/05/14 11:38:22;;;;;;;3.05;1.30;;;;;;;20.12;41.04;95662.75;5046561;28;20063;-59